Station info - map view · info · telemetry · weather · raw · status · beacons · messages · bulletins · browse · moving · my account
Callsign, ship name or locator: Clear       
It is possible to search using wildcards (*?) after a prefix. Example: OH*
APRS station KD7HPA-15 - show graphs
Map loading...
Mic-E message: Off duty
Location: 45°33.68' N 122°10.47' W - locator CN85VN94BR - show map - static map
8.8 miles East bearing 100° from Washougal, Clark County, Washington, United States [?]
10.4 miles East bearing 82° from Troutdale, Multnomah County, Oregon, United States
24.1 miles East bearing 103° from Vancouver, Clark County, Washington, United States
24.4 miles East bearing 84° from Portland, Multnomah County, Oregon, United States
Last position: 2018-06-04 19:49:00 EDT (18d 12h39m ago)
2018-06-04 16:49:00 PDT local time at Washougal, United States [?]
Altitude: -23 ft
Course: 227°
Speed: 71 MPH
Device: Kenwood: TM-D710 (rig)
Last path: KD7HPA-15>TUSSVX via WIDE1-1,qAR,BALDPK (good)
Positions stored: 3662
Stations near current position of KD7HPA-15 - show more
callsign distance last heard - EDT      callsign distance last heard - EDT
WB7UVH2.0 miles 23°2018-06-23 08:00:05 WA7FWC-92.1 miles 340°2018-06-12 17:26:24
DW36052.9 miles 167°2018-06-23 08:25:17 DW61933.7 miles 245°2018-06-23 08:26:33
IRLP-71534.3 miles 162°2018-06-21 23:02:02 CW26544.4 miles 196°2018-06-23 08:21:25
FW19674.7 miles 249°2018-06-23 08:17:45 N7CVZ5.2 miles 245°2018-06-23 08:15:53
CW26646.0 miles 250°2018-06-23 08:26:35 KJ7RD-46.0 miles 301°2018-06-21 16:04:00
KJ7RD6.1 miles 301°2018-06-23 08:01:22 DW94036.1 miles 229°2018-06-23 08:19:24
WB7PGB-iPad6.3 miles 304°2018-06-20 16:28:32 K7ZZY6.4 miles 243°2018-06-23 08:09:13
BRUCE M7.6 miles 63°2018-06-19 20:10:00 WA5SAR-18.9 miles 277°2018-06-22 01:10:37
KI7BVU8.9 miles 56°2018-05-28 14:10:01 KK7N10.0 miles 255°2018-06-23 08:24:21
N539RV10.4 miles 266°2018-06-17 13:23:59 FW040910.4 miles 257°2018-06-23 08:27:18
Stations which heard KD7HPA-15 directly on radio –
callsign pkts first heard - EDT last heard longest (tx => rx) longest at - EDT
LARCH 15 2018-06-04 12:07:17 2018-06-04 19:45:00 CN85RN > CN85UR 17.2 miles 50° 2018-06-04 12:45:02
JUNIPR 19 2018-06-04 14:00:50 2018-06-04 19:20:14 CN95FR > CN95PR 39.4 miles 87° 2018-06-04 19:20:14
IDIOTV 5 2018-06-04 12:05:28 2018-06-04 12:36:56 CN85RS > CN85HP 42.9 miles 261° 2018-06-04 12:06:29
ALAKES 1 2018-06-04 15:57:20 2018-06-04 15:57:20 DN05IU > DN04VX 80.2 miles 140° 2018-06-04 15:57:20
REDMTN 1 2018-06-04 12:43:00 2018-06-04 12:43:00 CN85RN > CN95CW 44.5 miles 54° 2018-06-04 12:43:00
LOKOUT 2 2018-06-04 12:07:16 2018-06-04 13:05:30 CN85RS > CN85WT 21.2 miles 81° 2018-06-04 12:07:16
MTHOOD 1 2018-06-04 12:36:55 2018-06-04 12:36:55 CN85RN > CN95DH 43.4 miles 114° 2018-06-04 12:36:55
N7BDW-10 6 2018-06-04 12:05:27 2018-06-04 12:17:43 CN85RS > CN85PR 8.4 miles 252° 2018-06-04 12:06:27
N7TNG-1 2 2018-06-04 12:39:57 2018-06-04 12:42:00 CN85RN > CN85PP 7.7 miles 318° 2018-06-04 12:42:00
NB7O-1 13 2018-06-04 15:18:40 2018-06-04 15:30:22 DN05HT > DN05HU 3.3 miles 44° 2018-06-04 15:18:40
BALDPK 14 2018-06-04 12:16:43 2018-06-04 19:49:00 CN95BQ > CN85LJ 59.8 miles 252° 2018-06-04 13:10:31
NA7Q-9 1 2018-06-04 12:40:57 2018-06-04 12:40:57 CN85RN > CN85QL 5.4 miles 217° 2018-06-04 12:40:57
N7AWM 74 2018-06-04 13:23:50 2018-06-04 19:18:08 CN95FQ > CN95JP 18.5 miles 100° 2018-06-04 13:23:50
KK7DS-1 3 2018-06-04 12:19:25 2018-06-04 12:21:25 CN85RQ > CN85RL 15.1 miles 174° 2018-06-04 12:21:25
KF7FMI-10 35 2018-06-04 14:50:11 2018-06-04 17:58:56 CN95UR > DN06GD 49.1 miles 52° 2018-06-04 17:58:56

Only position packets which were originated by the station are shown here. The range statistics show some extra long hops, because some digipeaters do not correctly add themselves to the digipeater path. Please check the raw packets.
About this site
This page shows real-time information collected from the Automatic Position Reporting System Internet network (APRS-IS). APRS is used by amateur (ham) radio operators to transmit real-time position information, weather data, telemetry and messages over the radio. A vehicle equipped with a GPS receiver, a VHF transmitter or HF transceiver and a small computer device called a tracker transmits it's location, speed and course in a small data packet, which is then received by a nearby iGate receiving site which forwards the packet on the Internet. Systems connected to the Internet can send information on the APRS-IS without a radio transmitter, or collect and display information transmitted anywhere in the world.
FAQ · Blog · Discussion group · Linking to aprs.fi · AIS sites · Service status · Database statistics · Advertising on aprs.fi · Technical details · API · Change log · Planned changes · Credits and thanks · Terms Of Service · iPhone/iPad APRS